Latest Weather Observations for Shark Bay Airport

IDW60801

Issued at 11:05 am WST Saturday 1 November 2014 (issued every 30 minutes, with the page automatically refreshed every 10 minutes)

About weather observations | Map of weather stations | Latest weather observations for WA | Other Formats
Station Details ID: 006105 Name: SHARK BAY AIRPORT Lat: -25.89 Lon: 113.58 Height: 33.8 m
Data from the previous 72 hours. | See also: Recent months for locations in Western Australia
Date/Time
WST
Temp
°C
App
Temp
°C
Dew
Point
Rel
Hum
%
Delta-T
°C
Wind Press
QNH
hPa
Press
MSL
hPa
Rain
since 9 am
mm
Dir
 
Spd
km/h
Gust
km/h
Spd
kts
Gust
kts
01/11:00am 28.2 24.3 12.1 37 9.3 SW 24 32 13 17 1014.1 1014.0 0.0
01/10:30am 28.0 25.4 7.8 28 10.9 E 11 19 6 10 1014.6 1014.5 0.0
01/10:00am 27.3 24.7 9.2 32 10.0 SSE 13 22 7 12 1014.8 1014.7 0.0
01/09:30am 26.0 23.3 10.2 37 8.8 S 15 24 8 13 1015.2 1015.1 0.0
01/09:00am 24.6 21.6 10.8 42 7.7 SSE 17 24 9 13 1015.4 1015.3 -
01/08:30am 23.3 19.3 10.4 44 7.1 SSE 22 32 12 17 1015.5 1015.4 -
01/08:00am 22.1 17.7 10.3 47 6.4 S 24 33 13 18 1015.2 1015.1 -
01/07:30am 21.0 16.3 10.8 52 5.6 SSE 26 35 14 19 1015.0 1014.9 -
01/07:00am 19.6 16.3 12.8 65 3.8 SSE 22 37 12 20 1015.1 1015.0 -
01/06:30am 18.3 15.7 13.8 75 2.6 SSE 20 28 11 15 1015.0 1014.9 -
01/06:00am 17.1 14.9 13.4 79 2.1 SSE 17 24 9 13 1014.7 1014.6 -
01/05:30am 16.9 14.3 13.2 79 2.1 SSE 19 30 10 16 1014.4 1014.3 -
01/05:00am 17.1 14.4 13.6 80 2.0 S 20 30 11 16 1014.3 1014.2 -
01/04:30am 17.2 14.6 13.7 80 2.0 S 20 26 11 14 1014.3 1014.2 -
01/04:00am 17.6 14.6 13.7 78 2.2 SSE 22 30 12 16 1014.2 1014.1 -
01/03:30am 17.8 15.4 14.5 81 1.9 S 20 32 11 17 1014.3 1014.2 -
01/03:00am 17.9 15.8 14.8 82 1.8 S 19 24 10 13 1014.4 1014.3 -
01/02:30am 18.0 16.8 15.1 83 1.7 SSE 15 20 8 11 1014.3 1014.2 -
01/02:00am 18.6 16.7 15.3 81 1.9 S 19 26 10 14 1014.3 1014.2 -
01/01:30am 18.9 16.9 15.4 80 2.1 S 20 28 11 15 1014.6 1014.5 -
01/01:00am 18.8 16.4 15.5 81 1.9 S 22 32 12 17 1014.7 1014.6 -
01/12:30am 18.8 16.4 15.3 80 2.1 S 22 32 12 17 1014.8 1014.7 -
01/12:00am 18.9 16.9 15.4 80 2.1 S 20 30 11 16 1015.1 1015.0 -
 
Date/Time
WST
Temp
°C
App
Temp
°C
Dew
Point
Rel
Hum
%
Delta-T
°C
Wind Press
QNH
hPa
Press
MSL
hPa
Rain
since 9 am
mm
Dir
 
Spd
km/h
Gust
km/h
Spd
kts
Gust
kts
31/11:00pm 19.0 16.6 15.3 79 2.2 S 22 32 12 17 1015.3 1015.2 0.0
31/10:30pm 19.1 17.3 15.4 79 2.2 S 19 28 10 15 1015.4 1015.3 0.0
31/10:00pm 19.1 16.7 15.4 79 2.2 S 22 30 12 16 1015.5 1015.4 0.0
31/09:30pm 19.2 16.3 15.1 77 2.4 S 24 35 13 19 1015.5 1015.4 0.0
31/09:00pm 19.3 16.7 15.0 76 2.5 S 22 32 12 17 1015.4 1015.3 0.0
31/08:30pm 19.6 16.1 14.6 73 2.9 S 26 37 14 20 1015.1 1015.0 0.0
31/08:00pm 19.9 15.4 13.8 68 3.5 S 30 41 16 22 1014.9 1014.8 0.0
31/07:30pm 20.3 16.7 14.2 68 3.5 SSW 26 39 14 21 1014.8 1014.7 0.0
31/07:00pm 20.6 16.3 13.3 63 4.2 SSW 28 37 15 20 1014.6 1014.5 0.0
31/06:30pm 21.2 17.6 12.9 59 4.7 S 24 39 13 21 1014.3 1014.2 0.0
31/06:00pm 22.0 17.7 13.1 57 5.1 S 28 39 15 21 1014.1 1014.0 0.0
31/05:30pm 23.0 18.1 12.6 52 5.9 S 30 39 16 21 1013.9 1013.8 0.0
31/05:00pm 23.8 18.5 12.4 48 6.5 SSW 32 44 17 24 1013.9 1013.8 0.0
31/04:30pm 24.4 19.5 12.7 48 6.7 SSW 30 43 16 23 1013.7 1013.6 0.0
31/04:00pm 24.9 19.5 12.2 45 7.3 SSW 32 43 17 23 1013.6 1013.5 0.0
31/03:30pm 25.8 20.9 11.2 40 8.3 SSW 28 39 15 21 1013.7 1013.6 0.0
31/03:00pm 25.8 20.8 9.6 36 8.9 SSW 26 37 14 20 1013.8 1013.7 0.0
31/02:30pm 26.2 21.4 10.4 37 8.8 SSW 26 35 14 19 1013.9 1013.8 0.0
31/02:00pm 25.6 20.7 11.4 41 8.1 SSW 28 39 15 21 1014.2 1014.1 0.0
31/01:30pm 25.8 20.8 10.8 39 8.4 SSW 28 39 15 21 1014.4 1014.3 0.0
31/01:00pm 25.4 19.9 10.4 39 8.3 SSW 30 39 16 21 1014.8 1014.7 0.0
31/12:30pm 25.5 20.0 10.5 39 8.4 SSW 30 43 16 23 1015.1 1015.0 0.0
31/12:00pm 26.0 22.3 10.2 37 8.8 S 20 32 11 17 1015.5 1015.4 0.0
31/11:30am 25.2 21.0 9.9 38 8.4 SSE 22 32 12 17 1015.7 1015.6 0.0
31/11:00am 24.8 20.6 11.0 42 7.7 S 24 35 13 19 1016.1 1016.0 0.0
31/10:30am 24.3 20.0 10.9 43 7.5 S 24 39 13 21 1016.6 1016.5 0.0
31/10:00am 23.7 18.9 10.4 43 7.3 SSE 26 37 14 20 1016.6 1016.5 0.0
31/09:30am 23.1 18.8 10.9 46 6.8 S 24 32 13 17 1016.7 1016.6 0.0
31/09:00am 22.6 18.8 11.0 48 6.4 SSE 22 32 12 17 1016.7 1016.6 0.0
31/08:30am 21.5 18.0 10.9 51 5.8 SSE 20 32 11 17 1016.8 1016.7 0.0
31/08:00am 20.3 17.3 11.8 58 4.7 SSE 19 26 10 14 1016.8 1016.7 0.0
31/07:30am 20.0 17.3 11.7 59 4.6 SE 17 22 9 12 1016.7 1016.6 0.0
31/07:00am 19.1 16.3 11.4 61 4.2 SE 17 26 9 14 1016.6 1016.5 0.0
31/06:30am 19.2 15.8 11.3 60 4.3 S 20 30 11 16 1016.0 1015.9 0.0
31/06:00am 18.2 16.6 11.7 66 3.6 SSE 11 17 6 9 1015.6 1015.5 0.0
31/05:30am 18.1 15.3 11.4 65 3.7 SE 17 28 9 15 1015.4 1015.3 0.0
31/05:00am 18.5 14.7 11.1 62 4.0 SSE 22 32 12 17 1015.2 1015.1 0.0
31/04:30am 18.8 15.6 11.9 64 3.8 S 20 32 11 17 1014.9 1014.8 0.0
31/04:00am 18.9 15.8 11.5 62 4.1 S 19 30 10 16 1014.7 1014.6 0.0
31/03:30am 18.8 15.2 11.9 64 3.8 S 22 30 12 16 1014.4 1014.3 0.0
31/03:00am 18.5 14.7 11.3 63 3.9 S 22 30 12 16 1014.4 1014.3 0.0
31/02:30am 18.8 15.8 12.1 65 3.7 S 19 28 10 15 1014.5 1014.4 0.0
31/02:00am 18.5 14.9 12.0 66 3.6 S 22 33 12 18 1014.5 1014.4 0.0
31/01:30am 18.3 14.6 11.6 65 3.7 S 22 33 12 18 1014.7 1014.6 0.0
31/01:00am 18.9 15.3 11.9 64 3.9 S 22 32 12 17 1014.9 1014.8 0.0
31/12:30am 19.2 14.9 12.0 63 4.0 S 26 37 14 20 1015.2 1015.1 0.0
31/12:00am 19.2 15.3 12.2 64 3.9 S 24 32 13 17 1015.5 1015.4 0.0
 
Date/Time
WST
Temp
°C
App
Temp
°C
Dew
Point
Rel
Hum
%
Delta-T
°C
Wind Press
QNH
hPa
Press
MSL
hPa
Rain
since 9 am
mm
Dir
 
Spd
km/h
Gust
km/h
Spd
kts
Gust
kts
30/11:30pm 19.3 15.5 12.3 64 3.9 S 24 39 13 21 1015.7 1015.6 0.0
30/11:00pm 19.0 14.8 12.3 65 3.7 S 26 41 14 22 1015.8 1015.7 0.0
30/10:30pm 19.0 14.4 12.3 65 3.7 S 28 39 15 21 1015.8 1015.7 0.0
30/10:00pm 19.3 15.2 12.6 65 3.8 S 26 37 14 20 1015.8 1015.7 0.0
30/09:30pm 19.5 14.2 12.5 64 3.9 S 32 43 17 23 1015.7 1015.6 0.0
30/09:00pm 19.6 14.4 12.8 65 3.8 S 32 46 17 25 1015.6 1015.5 0.0
30/08:30pm 19.6 15.3 13.1 66 3.7 S 28 41 15 22 1015.4 1015.3 0.0
30/08:00pm 19.8 15.6 13.5 67 3.6 S 28 39 15 21 1014.9 1014.8 0.0
30/07:30pm 20.2 15.4 13.9 67 3.6 S 32 44 17 24 1014.6 1014.5 0.0
30/07:00pm 20.2 15.0 13.4 65 3.9 SSW 33 43 18 23 1014.3 1014.2 0.0
30/06:30pm 20.7 15.9 13.9 65 3.9 SSW 32 44 17 24 1014.0 1013.9 0.0
30/06:00pm 21.4 16.5 13.6 61 4.5 SSW 32 43 17 23 1013.6 1013.5 0.0
30/05:30pm 22.4 16.9 13.7 58 5.1 SSW 35 44 19 24 1013.5 1013.4 0.0
30/05:00pm 23.6 18.5 13.8 54 5.7 SSW 33 48 18 26 1013.2 1013.1 0.0
30/04:30pm 24.0 18.4 13.2 50 6.3 SSW 35 48 19 26 1013.1 1013.0 0.0
30/04:00pm 24.8 19.9 13.7 50 6.5 SSW 32 44 17 24 1013.2 1013.1 0.0
30/03:49pm 25.0 20.2 13.9 50 6.5 SSW 32 50 17 27 1013.1 1013.0 0.0
30/03:30pm 24.8 19.8 14.0 51 6.4 SW 33 48 18 26 1013.1 1013.0 0.0
30/03:00pm 25.0 19.6 13.9 50 6.5 SW 35 48 19 26 1013.1 1013.0 0.0
30/02:30pm 25.6 21.6 14.1 49 6.8 SSW 28 43 15 23 1013.3 1013.2 0.0
30/02:00pm 26.2 21.4 13.0 44 7.7 SSW 30 39 16 21 1013.3 1013.2 0.0
30/01:30pm 25.9 21.4 12.7 44 7.7 SSW 28 35 15 19 1013.5 1013.4 0.0
30/01:00pm 25.8 22.3 13.3 46 7.3 SW 24 35 13 19 1013.9 1013.8 0.0
30/12:30pm 25.9 22.3 13.1 45 7.5 SW 24 35 13 19 1014.1 1014.0 0.0
30/12:00pm 25.7 21.8 12.2 43 7.8 SSW 24 35 13 19 1014.3 1014.2 0.0
30/11:30am 25.8 22.7 13.3 46 7.3 SW 22 35 12 19 1014.5 1014.4 0.0
30/11:00am 24.6 21.0 13.2 49 6.6 SSW 24 35 13 19 1014.9 1014.8 0.0
30/10:30am 24.1 21.0 14.5 55 5.7 SW 24 35 13 19 1015.1 1015.0 0.0
30/10:00am 23.6 20.2 13.8 54 5.7 SSW 24 32 13 17 1015.2 1015.1 0.0
30/09:30am 23.0 19.4 13.2 54 5.7 SSW 24 33 13 18 1015.3 1015.2 0.0
30/09:00am 22.3 18.5 13.6 58 5.0 SSW 26 37 14 20 1015.7 1015.6 0.0
30/08:30am 21.8 17.9 13.4 59 4.8 S 26 33 14 18 1015.7 1015.6 0.0
30/08:00am 21.0 17.9 13.4 62 4.4 S 22 32 12 17 1015.7 1015.6 0.0
30/07:30am 20.6 18.0 13.8 65 3.9 S 20 30 11 16 1015.7 1015.6 0.0
30/07:00am 20.3 17.3 13.7 66 3.8 S 22 32 12 17 1015.4 1015.3 0.0
30/06:30am 19.6 17.3 14.0 70 3.2 S 19 26 10 14 1015.4 1015.3 0.0
30/06:00am 19.1 17.2 14.1 73 2.9 S 17 22 9 12 1015.2 1015.1 0.0
30/05:30am 18.8 18.1 14.3 75 2.6 S 11 15 6 8 1014.9 1014.8 0.0
30/05:00am 18.5 17.8 14.2 76 2.5 S 11 15 6 8 1014.7 1014.6 0.0
30/04:30am 18.2 17.1 14.3 78 2.2 S 13 20 7 11 1014.3 1014.2 0.0
30/04:00am 18.1 16.2 14.2 78 2.2 S 17 20 9 11 1014.0 1013.9 0.0
30/03:30am 18.2 16.3 14.1 77 2.4 S 17 24 9 13 1014.1 1014.0 0.0
30/03:00am 18.3 16.3 14.0 76 2.5 S 17 24 9 13 1014.2 1014.1 0.0
30/02:30am 18.4 16.5 14.1 76 2.5 S 17 26 9 14 1014.1 1014.0 0.0
30/02:00am 18.5 16.3 14.4 77 2.4 S 19 24 10 13 1014.1 1014.0 0.0
30/01:30am 18.8 17.0 14.5 76 2.5 S 17 26 9 14 1014.3 1014.2 0.0
30/01:00am 18.7 17.3 14.4 76 2.5 S 15 20 8 11 1014.6 1014.5 0.0
30/12:30am 19.1 17.0 14.8 76 2.5 S 19 28 10 15 1014.6 1014.5 0.0
30/12:00am 19.2 16.1 14.5 74 2.7 S 24 32 13 17 1014.9 1014.8 0.0
 
Date/Time
WST
Temp
°C
App
Temp
°C
Dew
Point
Rel
Hum
%
Delta-T
°C
Wind Press
QNH
hPa
Press
MSL
hPa
Rain
since 9 am
mm
Dir
 
Spd
km/h
Gust
km/h
Spd
kts
Gust
kts
29/11:30pm 19.4 17.4 14.9 75 2.6 S 19 28 10 15 1015.2 1015.1 0.0
29/11:00pm 19.5 17.5 15.0 75 2.6 SSW 19 26 10 14 1015.3 1015.2 0.0
29/10:30pm 19.7 17.4 14.7 73 2.9 S 20 28 11 15 1015.4 1015.3 0.0
29/10:00pm 19.7 17.3 14.5 72 3.0 S 20 30 11 16 1015.6 1015.5 0.0
29/09:30pm 19.9 16.9 14.9 73 2.9 SSW 24 32 13 17 1015.6 1015.5 0.0
29/09:00pm 19.9 16.1 14.7 72 3.0 SSW 28 35 15 19 1015.3 1015.2 0.0
29/08:30pm 20.1 17.1 14.9 72 3.1 SSW 24 35 13 19 1015.3 1015.2 0.0
29/08:00pm 20.3 17.0 15.1 72 3.1 SSW 26 37 14 20 1015.2 1015.1 0.0
29/07:30pm 20.5 16.7 14.8 70 3.3 SSW 28 37 15 20 1015.0 1014.9 0.0
29/07:00pm 20.9 17.3 15.2 70 3.4 SSW 28 39 15 21 1014.6 1014.5 0.0
29/06:30pm 21.3 16.8 14.9 67 3.8 SSW 32 39 17 21 1014.4 1014.3 0.0
29/06:00pm 22.2 18.2 15.3 65 4.1 SSW 30 41 16 22 1014.1 1014.0 0.0
29/05:30pm 23.1 18.7 15.2 61 4.7 SSW 32 41 17 22 1013.9 1013.8 0.0
29/05:00pm 24.0 19.5 15.0 57 5.4 SSW 32 43 17 23 1013.7 1013.6 0.0
29/04:30pm 24.9 21.0 15.5 56 5.7 S 30 37 16 20 1013.6 1013.5 0.0
29/04:00pm 25.2 20.7 14.9 52 6.2 SSW 32 41 17 22 1013.4 1013.3 0.0
29/03:30pm 26.1 21.4 14.9 50 6.7 SSW 33 43 18 23 1013.2 1013.1 0.0
29/03:00pm 26.7 23.0 15.1 49 7.0 SSW 28 43 15 23 1013.2 1013.1 0.0
29/02:30pm 27.3 24.9 16.3 51 6.8 SSW 24 33 13 18 1013.2 1013.1 0.0
29/02:00pm 27.5 24.2 16.1 49 7.0 SSW 28 35 15 19 1013.3 1013.2 0.0
29/01:30pm 27.4 24.3 15.7 48 7.2 SSW 26 35 14 19 1013.5 1013.4 0.0
29/01:00pm 27.0 24.8 16.0 51 6.8 SSW 22 32 12 17 1013.8 1013.7 0.0
29/12:30pm 27.0 23.8 15.4 49 7.1 SSW 26 39 14 21 1014.0 1013.9 0.0
29/12:00pm 26.5 24.5 16.4 53 6.2 SSW 22 30 12 16 1014.0 1013.9 0.0
29/11:30am 26.3 24.6 16.3 54 6.2 SSW 20 30 11 16 1014.3 1014.2 0.0

Other Formats:

Comma delimited format used in spreadsheet applications
http://www.bom.gov.au/fwo/IDW60801/IDW60801.95402.axf

JavaScript Object Notation format (JSON) in row-major order
http://www.bom.gov.au/fwo/IDW60801/IDW60801.95402.json